createdAt,value
2023-04-19T00:00:10.372Z,12.30
2023-04-19T00:02:37.219Z,12.30
2023-04-19T00:05:05.200Z,12.20
2023-04-19T00:07:34.634Z,12.20
2023-04-19T00:10:01.509Z,12.20
2023-04-19T00:12:31.104Z,12.20
2023-04-19T00:14:58.079Z,12.20
2023-04-19T00:17:24.889Z,12.20
2023-04-19T00:19:59.732Z,12.10
2023-04-19T00:22:26.763Z,12.20
2023-04-19T00:24:53.599Z,12.20
2023-04-19T00:27:21.515Z,12.10
2023-04-19T00:29:48.311Z,12.10
2023-04-19T00:32:16.280Z,12.10
2023-04-19T00:34:50.404Z,12.00
2023-04-19T00:37:20.385Z,12.00
2023-04-19T00:39:51.249Z,11.90
2023-04-19T00:42:24.241Z,11.90
2023-04-19T00:44:56.178Z,11.90
2023-04-19T00:47:25.943Z,11.90
2023-04-19T00:49:54.901Z,11.80
2023-04-19T00:52:28.609Z,11.80
2023-04-19T00:55:04.240Z,11.70
2023-04-19T00:57:37.422Z,11.60
2023-04-19T01:00:08.966Z,11.50
2023-04-19T01:02:38.307Z,11.40
2023-04-19T01:05:18.391Z,11.30
2023-04-19T01:07:45.796Z,11.30
2023-04-19T01:10:14.762Z,11.20
2023-04-19T01:12:41.812Z,11.00
2023-04-19T01:15:11.838Z,11.00
2023-04-19T01:17:42.404Z,10.90
2023-04-19T01:20:09.502Z,10.90
2023-04-19T01:22:39.293Z,10.80
2023-04-19T01:25:14.167Z,10.70
2023-04-19T01:27:48.871Z,10.70
2023-04-19T01:30:20.441Z,10.70
2023-04-19T01:32:49.576Z,10.60
2023-04-19T01:35:16.491Z,10.70
2023-04-19T01:37:55.194Z,10.60
2023-04-19T01:40:28.501Z,10.60
2023-04-19T01:42:56.276Z,10.50
2023-04-19T01:45:23.192Z,10.40
2023-04-19T01:47:57.754Z,10.40
2023-04-19T01:50:24.692Z,10.30
2023-04-19T01:52:51.573Z,10.30
2023-04-19T01:57:59.250Z,10.40
2023-04-19T02:00:26.246Z,10.30
2023-04-19T02:02:53.386Z,10.30
2023-04-19T02:05:20.494Z,10.20
2023-04-19T02:07:54.465Z,10.20
2023-04-19T02:10:21.525Z,10.20
2023-04-19T02:12:50.010Z,10.30
2023-04-19T02:15:19.569Z,10.30
2023-04-19T02:17:46.932Z,10.20
2023-04-19T02:20:15.425Z,10.20
2023-04-19T02:22:43.921Z,10.10
2023-04-19T02:25:21.960Z,10.00
2023-04-19T02:27:48.935Z,9.90
2023-04-19T02:30:15.691Z,9.90
2023-04-19T02:32:45.242Z,9.80
2023-04-19T02:35:13.268Z,9.80
2023-04-19T02:37:41.075Z,9.70
2023-04-19T02:40:08.292Z,9.80
2023-04-19T02:42:37.370Z,9.80
2023-04-19T02:45:04.351Z,9.80
2023-04-19T02:47:34.397Z,9.80
2023-04-19T02:50:05.455Z,9.80
2023-04-19T02:52:40.056Z,9.80
2023-04-19T02:55:12.556Z,9.80
2023-04-19T02:57:39.619Z,9.80
2023-04-19T03:00:07.408Z,9.80
2023-04-19T03:02:37.171Z,9.70
2023-04-19T03:05:04.572Z,9.70
2023-04-19T03:07:31.601Z,9.70
2023-04-19T03:09:58.430Z,9.80
2023-04-19T03:12:25.254Z,9.80
2023-04-19T03:14:52.017Z,9.80
2023-04-19T03:17:18.795Z,9.80
2023-04-19T03:19:45.822Z,9.70
2023-04-19T03:22:12.760Z,9.50
2023-04-19T03:24:39.598Z,9.40
2023-04-19T03:27:09.400Z,9.40
2023-04-19T03:29:36.141Z,9.40
2023-04-19T03:32:03.018Z,9.40
2023-04-19T03:34:30.020Z,9.50
2023-04-19T03:36:56.858Z,9.50
2023-04-19T03:39:23.605Z,9.60
2023-04-19T03:41:50.556Z,9.60
2023-04-19T03:44:17.617Z,9.70
2023-04-19T03:46:46.592Z,9.70
2023-04-19T03:49:16.227Z,9.80
2023-04-19T03:51:43.205Z,9.70
2023-04-19T03:54:10.269Z,9.70
2023-04-19T03:56:36.913Z,9.80
2023-04-19T03:59:03.658Z,10.00
2023-04-19T04:01:30.485Z,10.00
2023-04-19T04:03:57.502Z,10.10
2023-04-19T04:06:24.527Z,10.10
2023-04-19T04:08:52.343Z,10.10
2023-04-19T04:11:19.229Z,10.10
2023-04-19T04:13:51.960Z,10.00
2023-04-19T04:16:24.540Z,10.00
2023-04-19T04:18:51.611Z,9.90
2023-04-19T04:21:18.535Z,10.00
2023-04-19T04:23:46.328Z,10.00
2023-04-19T04:26:15.488Z,10.10
2023-04-19T04:28:42.449Z,10.10
2023-04-19T04:31:09.911Z,10.20
2023-04-19T04:33:37.266Z,10.20
2023-04-19T04:36:06.148Z,10.30
2023-04-19T04:38:34.264Z,10.30
2023-04-19T04:41:09.745Z,10.30
2023-04-19T04:43:36.511Z,10.30
2023-04-19T04:46:04.316Z,10.20
2023-04-19T04:48:31.754Z,10.10
2023-04-19T04:50:58.493Z,10.00
2023-04-19T04:53:28.515Z,9.90
2023-04-19T04:55:55.338Z,9.90
2023-04-19T04:58:22.102Z,9.80
2023-04-19T05:00:49.146Z,9.90
2023-04-19T05:03:16.605Z,9.80
2023-04-19T05:05:45.069Z,9.80
2023-04-19T05:08:12.324Z,9.80
2023-04-19T05:10:39.189Z,9.80
2023-04-19T05:13:08.369Z,9.80
2023-04-19T05:15:35.305Z,9.80
2023-04-19T05:18:05.359Z,9.90
2023-04-19T05:20:33.999Z,9.80
2023-04-19T05:23:01.967Z,9.90
2023-04-19T05:25:30.338Z,9.90
2023-04-19T05:27:59.771Z,10.00
2023-04-19T05:30:26.474Z,10.00
2023-04-19T05:33:02.925Z,10.10
2023-04-19T05:35:30.031Z,10.20
2023-04-19T05:37:59.377Z,10.20
2023-04-19T05:40:29.737Z,10.30
2023-04-19T05:42:58.931Z,10.30
2023-04-19T05:45:25.865Z,10.30
2023-04-19T05:48:00.810Z,10.30
2023-04-19T05:50:27.729Z,10.30
2023-04-19T05:52:57.231Z,10.40
2023-04-19T05:55:23.988Z,10.40
2023-04-19T05:57:53.262Z,10.50
2023-04-19T06:00:22.373Z,10.60
2023-04-19T06:02:52.772Z,10.70
2023-04-19T06:05:30.949Z,10.70
2023-04-19T06:08:02.775Z,10.80
2023-04-19T06:10:44.459Z,10.80
2023-04-19T06:13:18.157Z,10.90
2023-04-19T06:15:44.680Z,10.90
2023-04-19T06:18:19.799Z,11.10
2023-04-19T06:20:47.199Z,11.10
2023-04-19T06:23:14.821Z,11.10
2023-04-19T06:25:41.762Z,11.20
2023-04-19T06:28:08.310Z,11.20
2023-04-19T06:30:34.886Z,11.20
2023-04-19T06:33:01.507Z,11.20
2023-04-19T06:35:28.161Z,11.30
2023-04-19T06:37:54.745Z,11.30
2023-04-19T06:40:21.410Z,11.20
2023-04-19T06:42:47.956Z,11.30
2023-04-19T06:45:16.100Z,11.40
2023-04-19T06:47:42.758Z,11.40
2023-04-19T06:50:10.646Z,11.40
2023-04-19T06:52:37.370Z,11.40
2023-04-19T06:55:04.155Z,11.50
2023-04-19T06:57:30.720Z,11.50
2023-04-19T06:59:58.207Z,11.60
2023-04-19T07:02:25.049Z,11.70
2023-04-19T07:04:51.778Z,11.80
2023-04-19T07:07:18.465Z,12.00
2023-04-19T07:09:45.061Z,12.20
2023-04-19T07:12:11.858Z,12.10
2023-04-19T07:14:38.590Z,12.10
2023-04-19T07:17:06.133Z,12.30
2023-04-19T07:19:33.114Z,12.40
2023-04-19T07:21:59.853Z,12.60
2023-04-19T07:24:27.860Z,12.60
2023-04-19T07:26:54.520Z,12.80
2023-04-19T07:29:21.103Z,12.90
2023-04-19T07:31:47.876Z,13.00
2023-04-19T07:34:14.779Z,13.10
2023-04-19T07:36:41.404Z,13.20
2023-04-19T07:39:08.144Z,13.40
2023-04-19T07:41:36.078Z,13.30
2023-04-19T07:44:05.812Z,13.30
2023-04-19T07:46:32.424Z,13.60
2023-04-19T07:48:59.032Z,13.50
2023-04-19T07:51:26.183Z,13.70
2023-04-19T07:53:52.655Z,13.40
2023-04-19T07:56:20.167Z,13.30
2023-04-19T07:58:50.890Z,13.10
2023-04-19T08:01:23.598Z,12.80
2023-04-19T08:03:50.488Z,12.70
2023-04-19T08:06:18.038Z,12.90
2023-04-19T08:08:44.567Z,13.10
2023-04-19T08:11:11.658Z,13.30
2023-04-19T08:13:42.161Z,13.20
2023-04-19T08:16:51.811Z,13.20
2023-04-19T08:19:00.423Z,13.40
2023-04-19T08:21:37.964Z,13.90
2023-04-19T08:24:07.643Z,14.40
2023-04-19T08:26:34.496Z,14.80
2023-04-19T08:29:01.214Z,14.80
2023-04-19T08:31:27.976Z,15.10
2023-04-19T08:33:55.205Z,14.80
2023-04-19T08:36:32.953Z,14.60
2023-04-19T08:39:06.913Z,14.10
2023-04-19T08:41:37.358Z,13.90
2023-04-19T08:44:04.845Z,14.20
2023-04-19T08:46:32.277Z,14.40
2023-04-19T08:48:59.572Z,15.00
2023-04-19T08:51:27.281Z,15.30
2023-04-19T08:53:57.686Z,15.10
2023-04-19T08:56:34.825Z,14.70
2023-04-19T08:59:19.511Z,14.60
2023-04-19T09:01:47.539Z,14.80
2023-04-19T09:04:31.755Z,14.90
2023-04-19T09:07:01.649Z,14.80
2023-04-19T09:09:38.699Z,15.10
2023-04-19T09:12:20.344Z,15.00
2023-04-19T09:15:00.503Z,15.40
2023-04-19T09:17:31.895Z,15.10
2023-04-19T09:20:00.975Z,15.50
2023-04-19T09:22:27.567Z,15.40
2023-04-19T09:25:22.587Z,16.10
2023-04-19T09:27:46.305Z,15.50
2023-04-19T09:30:24.080Z,16.00
2023-04-19T09:32:56.935Z,16.40
2023-04-19T09:35:39.864Z,17.30
2023-04-19T09:38:08.113Z,18.00
2023-04-19T09:40:35.772Z,18.60
2023-04-19T09:43:17.925Z,17.40
2023-04-19T09:45:51.291Z,16.30
2023-04-19T09:48:18.015Z,15.60
2023-04-19T09:50:57.478Z,15.90
2023-04-19T09:53:30.759Z,15.40
2023-04-19T09:56:02.376Z,15.90
2023-04-19T09:58:38.273Z,16.20
2023-04-19T10:01:17.478Z,17.40
2023-04-19T10:03:45.887Z,18.80
2023-04-19T10:06:29.607Z,19.60
2023-04-19T10:09:06.298Z,18.60
2023-04-19T10:11:39.520Z,19.40
2023-04-19T10:14:07.655Z,19.60
2023-04-19T10:16:34.981Z,19.90
2023-04-19T10:19:02.957Z,20.30
2023-04-19T10:21:29.835Z,20.40
2023-04-19T10:23:56.840Z,20.30
2023-04-19T10:26:23.813Z,20.70
2023-04-19T10:28:50.544Z,20.30
2023-04-19T10:31:21.291Z,20.20
2023-04-19T10:33:48.048Z,21.30
2023-04-19T10:36:15.603Z,21.40
2023-04-19T10:38:47.069Z,21.00
2023-04-19T10:41:18.637Z,21.40
2023-04-19T10:44:08.493Z,22.70
2023-04-19T10:46:37.673Z,23.10
2023-04-19T10:49:05.366Z,24.10
2023-04-19T10:51:39.073Z,22.50
2023-04-19T10:54:06.695Z,22.50
2023-04-19T10:56:33.633Z,22.80
2023-04-19T10:59:00.216Z,23.40
2023-04-19T11:01:40.781Z,24.00
2023-04-19T11:04:10.624Z,24.70
2023-04-19T11:06:38.653Z,25.50
2023-04-19T11:09:10.145Z,24.10
2023-04-19T11:11:36.843Z,23.90
2023-04-19T11:14:04.462Z,23.90
2023-04-19T11:16:44.989Z,22.30
2023-04-19T11:19:19.462Z,21.60
2023-04-19T11:21:47.512Z,22.30
2023-04-19T11:24:16.162Z,22.50
2023-04-19T11:26:44.092Z,22.70
2023-04-19T11:29:10.828Z,23.00
2023-04-19T11:31:37.802Z,23.80
2023-04-19T11:34:06.906Z,23.60
2023-04-19T11:36:36.667Z,23.40
2023-04-19T11:39:06.809Z,23.60
2023-04-19T11:41:40.143Z,23.90
2023-04-19T11:44:13.865Z,23.30
2023-04-19T11:46:40.652Z,22.80
2023-04-19T11:49:07.321Z,22.40
2023-04-19T11:51:36.474Z,21.90
2023-04-19T11:54:20.905Z,21.70
2023-04-19T11:57:04.247Z,22.20
2023-04-19T11:59:32.390Z,22.00
2023-04-19T12:02:08.535Z,22.70
2023-04-19T12:04:46.343Z,22.60
2023-04-19T12:07:17.934Z,22.50
2023-04-19T12:09:59.305Z,19.60
2023-04-19T12:12:35.090Z,20.40
2023-04-19T12:15:02.124Z,20.10
2023-04-19T12:17:44.799Z,20.10
2023-04-19T12:20:38.941Z,19.30
2023-04-19T12:23:06.883Z,19.30
2023-04-19T12:25:35.779Z,18.20
2023-04-19T12:28:05.471Z,18.60
2023-04-19T12:30:32.209Z,18.30
2023-04-19T12:32:59.210Z,18.60
2023-04-19T12:35:27.757Z,18.90
2023-04-19T12:37:57.137Z,19.20
2023-04-19T12:40:24.134Z,19.30
2023-04-19T12:42:50.807Z,19.80
2023-04-19T12:45:18.261Z,19.90
2023-04-19T12:47:45.760Z,20.30
2023-04-19T12:50:13.328Z,19.60
2023-04-19T12:52:42.267Z,19.70
2023-04-19T12:55:08.982Z,20.90
2023-04-19T12:57:36.070Z,20.20
2023-04-19T13:00:03.874Z,19.60
2023-04-19T13:02:30.913Z,19.50
2023-04-19T13:05:12.788Z,19.30
2023-04-19T13:07:40.646Z,19.10
2023-04-19T13:10:07.541Z,19.60
2023-04-19T13:12:34.230Z,20.20
2023-04-19T13:15:03.653Z,20.20
2023-04-19T13:17:32.342Z,20.10
2023-04-19T13:19:58.995Z,19.20
2023-04-19T13:22:27.002Z,19.50
2023-04-19T13:24:54.661Z,20.50
2023-04-19T13:27:22.647Z,20.70
2023-04-19T13:29:49.289Z,20.30
2023-04-19T13:32:18.490Z,19.60
2023-04-19T13:34:48.480Z,20.00
2023-04-19T13:37:16.158Z,20.50
2023-04-19T13:39:43.142Z,21.00
2023-04-19T13:42:10.048Z,20.60
2023-04-19T13:44:36.783Z,20.20
2023-04-19T13:47:03.876Z,19.90
2023-04-19T13:49:34.303Z,19.70
2023-04-19T13:52:16.969Z,20.10
2023-04-19T13:54:44.702Z,20.60
2023-04-19T13:57:12.198Z,20.50
2023-04-19T13:59:41.499Z,20.90
2023-04-19T14:02:08.524Z,21.50
2023-04-19T14:04:35.288Z,21.80
2023-04-19T14:07:02.284Z,20.70
2023-04-19T14:09:28.977Z,20.40
2023-04-19T14:11:57.027Z,20.20
2023-04-19T14:14:25.882Z,20.10
2023-04-19T14:16:52.761Z,21.20
2023-04-19T14:19:19.308Z,20.90
2023-04-19T14:21:51.759Z,21.20
2023-04-19T14:24:18.529Z,21.70
2023-04-19T14:26:45.471Z,20.90
2023-04-19T14:29:12.078Z,20.30
2023-04-19T14:31:38.752Z,20.80
2023-04-19T14:34:05.401Z,21.40
2023-04-19T14:36:32.023Z,21.80
2023-04-19T14:38:58.645Z,22.10
2023-04-19T14:41:25.391Z,22.60
2023-04-19T14:43:52.128Z,21.80
2023-04-19T14:46:18.878Z,21.40
2023-04-19T14:48:45.514Z,21.80
2023-04-19T14:51:12.216Z,22.90
2023-04-19T14:53:38.748Z,24.00
2023-04-19T14:56:06.691Z,24.10
2023-04-19T14:58:33.365Z,25.20
2023-04-19T15:01:00.070Z,25.70
2023-04-19T15:03:26.776Z,24.80
2023-04-19T15:05:53.656Z,23.60
2023-04-19T15:08:30.159Z,23.70
2023-04-19T15:10:57.523Z,22.90
2023-04-19T15:13:24.253Z,22.50
2023-04-19T15:15:51.210Z,21.70
2023-04-19T15:18:17.954Z,21.10
2023-04-19T15:20:44.589Z,21.70
2023-04-19T15:23:11.288Z,22.10
2023-04-19T15:25:37.865Z,22.50
2023-04-19T15:28:04.662Z,23.40
2023-04-19T15:30:31.293Z,22.80
2023-04-19T15:33:00.042Z,23.10
2023-04-19T15:35:26.697Z,23.70
2023-04-19T15:37:53.320Z,23.20
2023-04-19T15:40:20.309Z,22.90
2023-04-19T15:42:46.871Z,22.50
2023-04-19T15:45:13.603Z,22.80
2023-04-19T15:47:43.208Z,22.90
2023-04-19T15:50:09.957Z,23.10
2023-04-19T15:52:36.918Z,22.50
2023-04-19T15:55:03.842Z,22.80
2023-04-19T15:57:30.411Z,22.60
2023-04-19T15:59:57.125Z,23.60
2023-04-19T16:02:26.650Z,24.00
2023-04-19T16:04:53.654Z,23.80
2023-04-19T16:07:22.673Z,22.70
2023-04-19T16:09:49.319Z,22.40
2023-04-19T16:12:15.890Z,22.10
2023-04-19T16:14:42.487Z,22.60
2023-04-19T16:17:11.660Z,22.60
2023-04-19T16:19:38.307Z,22.90
2023-04-19T16:22:13.675Z,23.00
2023-04-19T16:24:40.754Z,22.70
2023-04-19T16:27:07.459Z,21.50
2023-04-19T16:29:39.092Z,20.90
2023-04-19T16:32:07.526Z,20.80
2023-04-19T16:34:39.214Z,20.80
2023-04-19T16:37:28.263Z,21.30
2023-04-19T16:39:55.125Z,20.80
2023-04-19T16:42:29.199Z,20.10
2023-04-19T16:45:03.457Z,19.70
2023-04-19T16:47:35.800Z,20.10
2023-04-19T16:50:18.122Z,20.20
2023-04-19T16:52:44.872Z,20.40
2023-04-19T16:55:14.390Z,19.90
2023-04-19T16:57:41.046Z,19.80
2023-04-19T17:00:08.964Z,20.00
2023-04-19T17:02:35.790Z,19.50
2023-04-19T17:05:02.768Z,19.70
2023-04-19T17:07:29.459Z,19.90
2023-04-19T17:09:56.320Z,19.60
2023-04-19T17:12:23.070Z,19.20
2023-04-19T17:14:49.955Z,19.60
2023-04-19T17:17:19.032Z,19.40
2023-04-19T17:19:48.433Z,19.50
2023-04-19T17:24:48.416Z,19.20
2023-04-19T17:27:15.041Z,19.10
2023-04-19T17:29:41.656Z,19.50
2023-04-19T17:32:08.925Z,19.50
2023-04-19T17:34:36.981Z,19.10
2023-04-19T17:37:03.831Z,18.80
2023-04-19T17:39:30.530Z,18.50
2023-04-19T17:41:57.026Z,18.30
2023-04-19T17:44:23.569Z,18.70
2023-04-19T17:46:50.226Z,18.30
2023-04-19T17:49:18.984Z,18.00
2023-04-19T17:51:46.238Z,17.70
2023-04-19T17:54:12.969Z,17.60
2023-04-19T17:56:39.483Z,17.40
2023-04-19T17:59:06.073Z,17.20
2023-04-19T18:01:34.816Z,17.20
2023-04-19T18:04:01.789Z,17.20
2023-04-19T18:06:28.458Z,17.00
2023-04-19T18:08:55.076Z,16.90
2023-04-19T18:11:21.590Z,16.50
2023-04-19T18:13:48.208Z,16.30
2023-04-19T18:16:17.121Z,15.70
2023-04-19T18:18:43.760Z,15.50
2023-04-19T18:21:10.458Z,15.20
2023-04-19T18:23:36.991Z,14.80
2023-04-19T18:26:03.965Z,14.70
2023-04-19T18:28:30.638Z,14.50
2023-04-19T18:30:57.369Z,14.40
2023-04-19T18:33:24.033Z,14.10
2023-04-19T18:35:50.749Z,14.00
2023-04-19T18:38:17.392Z,13.90
2023-04-19T18:40:44.031Z,13.70
2023-04-19T18:43:10.701Z,13.70
2023-04-19T18:45:37.321Z,13.60
2023-04-19T18:48:03.996Z,13.50
2023-04-19T18:50:31.128Z,13.40
2023-04-19T18:52:58.539Z,13.30
2023-04-19T18:55:26.523Z,13.30
2023-04-19T18:57:53.194Z,13.20
2023-04-19T19:00:21.725Z,13.10
2023-04-19T19:02:48.507Z,13.10
2023-04-19T19:05:15.802Z,13.10
2023-04-19T19:07:43.304Z,13.00
2023-04-19T19:10:19.082Z,12.90
2023-04-19T19:12:47.541Z,12.90
2023-04-19T19:15:14.447Z,12.80
2023-04-19T19:17:41.259Z,12.70
2023-04-19T19:20:08.212Z,12.60
2023-04-19T19:22:35.007Z,12.50
2023-04-19T19:25:01.751Z,12.50
2023-04-19T19:27:28.412Z,12.40
2023-04-19T19:29:55.174Z,12.30
2023-04-19T19:32:22.079Z,12.20
2023-04-19T19:37:19.190Z,12.10
2023-04-19T19:39:47.180Z,12.00
2023-04-19T19:42:17.491Z,12.00
2023-04-19T19:44:44.394Z,12.00
2023-04-19T19:47:12.415Z,11.90
2023-04-19T19:52:08.630Z,11.80
2023-04-19T19:54:35.310Z,11.70
2023-04-19T19:59:34.844Z,11.60
2023-04-19T20:02:02.277Z,11.60
2023-04-19T20:04:29.385Z,11.50
2023-04-19T20:07:28.535Z,11.50
2023-04-19T20:09:43.361Z,11.40
2023-04-19T20:12:12.612Z,11.30
2023-04-19T20:14:42.180Z,11.30
2023-04-19T20:17:08.822Z,11.20
2023-04-19T20:19:35.933Z,11.20
2023-04-19T20:22:02.780Z,11.10
2023-04-19T20:24:29.851Z,11.10
2023-04-19T20:26:57.449Z,11.00
2023-04-19T20:29:24.130Z,10.90
2023-04-19T20:31:50.891Z,10.90
2023-04-19T20:34:17.598Z,10.90
2023-04-19T20:36:48.171Z,10.80
2023-04-19T20:39:15.187Z,10.70
2023-04-19T20:41:43.793Z,10.70
2023-04-19T20:44:10.635Z,10.70
2023-04-19T20:46:37.368Z,10.60
2023-04-19T20:49:04.009Z,10.50
2023-04-19T20:51:31.634Z,10.50
2023-04-19T20:53:58.318Z,10.40
2023-04-19T20:56:24.941Z,10.40
2023-04-19T20:58:52.748Z,10.40
2023-04-19T21:01:20.301Z,10.30
2023-04-19T21:03:48.639Z,10.30
2023-04-19T21:06:15.474Z,10.30
2023-04-19T21:08:42.148Z,10.20
2023-04-19T21:11:08.789Z,10.10
2023-04-19T21:13:35.380Z,10.00
2023-04-19T21:16:01.994Z,10.00
2023-04-19T21:18:29.923Z,10.00
2023-04-19T21:20:57.076Z,10.00
2023-04-19T21:25:52.646Z,9.90
2023-04-19T21:28:19.278Z,9.80
2023-04-19T21:30:45.937Z,9.70
2023-04-19T21:33:12.546Z,9.70
2023-04-19T21:35:39.066Z,9.60
2023-04-19T21:38:06.570Z,9.50
2023-04-19T21:40:33.232Z,9.50
2023-04-19T21:42:59.823Z,9.40
2023-04-19T21:45:26.459Z,9.40
2023-04-19T21:47:53.086Z,9.30
2023-04-19T21:50:19.701Z,9.30
2023-04-19T21:52:46.205Z,9.20
2023-04-19T21:55:12.805Z,9.20
2023-04-19T21:57:39.321Z,9.20
2023-04-19T22:00:06.854Z,9.20
2023-04-19T22:02:33.550Z,9.20
2023-04-19T22:05:00.419Z,9.10
2023-04-19T22:07:30.111Z,9.10
2023-04-19T22:09:57.334Z,9.00
2023-04-19T22:12:24.485Z,9.00
2023-04-19T22:14:51.343Z,8.90
2023-04-19T22:17:21.315Z,8.90
2023-04-19T22:19:48.500Z,9.00
2023-04-19T22:22:15.125Z,8.90
2023-04-19T22:24:53.830Z,8.90
2023-04-19T22:27:23.655Z,8.80
2023-04-19T22:29:50.360Z,8.70
2023-04-19T22:32:16.953Z,8.70
2023-04-19T22:34:43.592Z,8.60
2023-04-19T22:37:10.416Z,8.50
2023-04-19T22:39:36.942Z,8.40
2023-04-19T22:42:03.557Z,8.40
2023-04-19T22:44:30.139Z,8.40
2023-04-19T22:46:57.982Z,8.30
2023-04-19T22:49:24.558Z,8.20
2023-04-19T22:51:51.085Z,8.10
2023-04-19T22:54:17.688Z,8.00
2023-04-19T22:56:44.174Z,8.00
2023-04-19T22:59:10.799Z,7.90
2023-04-19T23:01:37.393Z,7.90
2023-04-19T23:04:03.975Z,7.80
2023-04-19T23:06:32.332Z,7.70
2023-04-19T23:09:00.667Z,7.70
2023-04-19T23:11:29.803Z,7.70
2023-04-19T23:13:56.396Z,7.80
2023-04-19T23:16:24.170Z,7.80
2023-04-19T23:18:50.769Z,7.90
2023-04-19T23:21:17.441Z,7.80
2023-04-19T23:23:44.048Z,7.80
2023-04-19T23:26:11.828Z,7.70
2023-04-19T23:28:38.383Z,7.70
2023-04-19T23:31:05.024Z,7.60
2023-04-19T23:33:31.718Z,7.60
2023-04-19T23:35:58.230Z,7.50
2023-04-19T23:38:24.929Z,7.50
2023-04-19T23:40:51.484Z,7.60
2023-04-19T23:43:18.025Z,7.60
2023-04-19T23:45:44.616Z,7.60
2023-04-19T23:48:11.231Z,7.70
2023-04-19T23:50:37.777Z,7.70
2023-04-19T23:53:05.430Z,7.70
2023-04-19T23:55:32.029Z,7.70
2023-04-19T23:57:58.678Z,7.60
